createdAt,value
2022-09-12T00:04:23.309Z,101514.75
2022-09-12T00:09:27.401Z,101508.50
2022-09-12T00:14:30.713Z,101506.53
2022-09-12T00:19:33.425Z,101508.91
2022-09-12T00:24:37.501Z,101516.69
2022-09-12T00:29:40.215Z,101518.47
2022-09-12T00:34:42.999Z,101512.13
2022-09-12T00:39:47.187Z,101504.84
2022-09-12T00:44:52.992Z,101502.88
2022-09-12T00:50:04.163Z,101503.69
2022-09-12T00:55:13.945Z,101492.06
2022-09-12T01:00:19.541Z,101497.25
2022-09-12T01:05:23.379Z,101494.47
2022-09-12T01:10:27.434Z,101485.59
2022-09-12T01:15:30.182Z,101496.09
2022-09-12T01:21:02.732Z,101486.94
2022-09-12T01:26:28.446Z,101495.59
2022-09-12T01:31:38.599Z,101490.22
2022-09-12T01:36:51.396Z,101493.69
2022-09-12T01:42:00.693Z,101498.88
2022-09-12T01:47:10.177Z,101489.78
2022-09-12T01:52:19.449Z,101486.09
2022-09-12T01:57:31.000Z,101490.34
2022-09-12T02:02:38.645Z,101487.72
2022-09-12T02:07:46.875Z,101484.81
2022-09-12T02:12:53.873Z,101482.81
2022-09-12T02:18:02.122Z,101482.56
2022-09-12T02:23:09.275Z,101488.66
2022-09-12T02:28:16.332Z,101491.28
2022-09-12T02:33:28.006Z,101481.75
2022-09-12T02:38:36.506Z,101480.75
2022-09-12T02:43:39.297Z,101478.78
2022-09-12T02:48:44.949Z,101481.13
2022-09-12T02:53:47.797Z,101486.88
2022-09-12T02:58:50.897Z,101480.50
2022-09-12T03:04:20.274Z,101476.34
2022-09-12T03:09:36.342Z,101481.22
2022-09-12T03:15:07.266Z,101475.53
2022-09-12T03:20:16.949Z,101481.19
2022-09-12T03:25:24.735Z,101483.34
2022-09-12T03:30:28.134Z,101475.91
2022-09-12T03:35:32.404Z,101479.28
2022-09-12T03:40:35.237Z,101476.19
2022-09-12T03:45:38.524Z,101472.38
2022-09-12T03:50:42.647Z,101470.47
2022-09-12T03:55:45.412Z,101471.38
2022-09-12T04:00:48.278Z,101471.28
2022-09-12T04:05:52.479Z,101478.38
2022-09-12T04:10:55.215Z,101478.81
2022-09-12T04:15:58.645Z,101479.47
2022-09-12T04:21:07.068Z,101491.66
2022-09-12T04:26:10.812Z,101489.53
2022-09-12T04:31:17.731Z,101488.53
2022-09-12T04:36:22.909Z,101485.88
2022-09-12T04:41:29.014Z,101492.00
2022-09-12T04:46:33.860Z,101491.69
2022-09-12T04:51:41.126Z,101497.81
2022-09-12T04:56:46.228Z,101498.69
2022-09-12T05:01:49.549Z,101504.97
2022-09-12T05:06:53.765Z,101500.91
2022-09-12T05:12:04.896Z,101505.63
2022-09-12T05:17:08.578Z,101505.97
2022-09-12T05:22:12.688Z,101515.00
2022-09-12T05:27:15.425Z,101504.16
2022-09-12T05:32:18.174Z,101514.69
2022-09-12T05:37:23.213Z,101513.44
2022-09-12T05:42:25.942Z,101510.44
2022-09-12T05:47:28.745Z,101508.38
2022-09-12T05:52:33.249Z,101511.72
2022-09-12T05:57:36.394Z,101507.97
2022-09-12T06:02:39.453Z,101518.41
2022-09-12T06:07:43.562Z,101512.16
2022-09-12T06:12:46.277Z,101508.56
2022-09-12T06:17:51.461Z,101512.00
2022-09-12T06:22:55.779Z,101508.22
2022-09-12T06:27:58.511Z,101518.63
2022-09-12T06:33:01.222Z,101517.34
2022-09-12T06:38:05.412Z,101503.22
2022-09-12T06:43:08.126Z,101508.41
2022-09-12T06:48:10.818Z,101502.03
2022-09-12T06:53:14.874Z,101505.25
2022-09-12T06:58:17.595Z,101508.56
2022-09-12T07:03:20.479Z,101518.84
2022-09-12T07:08:24.658Z,101513.53
2022-09-12T07:13:27.488Z,101515.38
2022-09-12T07:18:31.005Z,101512.72
2022-09-12T07:23:35.406Z,101514.97
2022-09-12T07:28:38.324Z,101515.22
2022-09-12T07:33:42.476Z,101512.84
2022-09-12T07:38:47.572Z,101507.69
2022-09-12T07:43:52.945Z,101511.00
2022-09-12T07:48:57.884Z,101504.84
2022-09-12T07:54:02.693Z,101504.84
2022-09-12T07:59:05.394Z,101514.94
2022-09-12T08:04:08.234Z,101513.81
2022-09-12T08:09:15.285Z,101513.25
2022-09-12T08:14:18.323Z,101505.56
2022-09-12T08:19:22.700Z,101513.53
2022-09-12T08:24:26.874Z,101510.81
2022-09-12T08:29:29.588Z,101525.38
2022-09-12T08:34:32.396Z,101518.69
2022-09-12T08:39:36.478Z,101515.31
2022-09-12T08:45:07.847Z,101510.63
2022-09-12T08:50:18.512Z,101509.66
2022-09-12T08:55:31.103Z,101511.59
2022-09-12T09:00:45.456Z,101507.94
2022-09-12T09:05:56.351Z,101513.06
2022-09-12T09:11:14.071Z,101504.69
2022-09-12T09:16:23.886Z,101492.03
2022-09-12T09:21:31.723Z,101491.38
2022-09-12T09:26:44.321Z,101492.56
2022-09-12T09:31:50.201Z,101490.34
2022-09-12T09:36:56.767Z,101487.50
2022-09-12T09:42:14.103Z,101484.72
2022-09-12T09:47:18.841Z,101487.69
2022-09-12T09:52:27.361Z,101481.53
2022-09-12T09:57:45.390Z,101472.34
2022-09-12T10:03:02.052Z,101470.63
2022-09-12T10:08:07.739Z,101466.81
2022-09-12T10:13:32.743Z,101467.91
2022-09-12T10:18:38.768Z,101468.25
2022-09-12T10:23:43.246Z,101457.19
2022-09-12T10:28:51.677Z,101450.09
2022-09-12T10:33:55.620Z,101452.91
2022-09-12T10:39:02.578Z,101446.47
2022-09-12T10:44:16.871Z,101435.59
2022-09-12T10:49:31.407Z,101436.44
2022-09-12T10:54:34.479Z,101440.28
2022-09-12T10:59:55.922Z,101432.50
2022-09-12T11:05:09.006Z,101428.91
2022-09-12T11:10:35.642Z,101426.03
2022-09-12T11:15:53.153Z,101437.69
2022-09-12T11:21:09.403Z,101431.03
2022-09-12T11:26:25.979Z,101423.91
2022-09-12T11:31:51.292Z,101434.75
2022-09-12T11:37:14.113Z,101426.97
2022-09-12T11:42:23.480Z,101427.97
2022-09-12T11:47:33.566Z,101413.84
2022-09-12T11:52:38.852Z,101411.19
2022-09-12T11:57:45.732Z,101404.13
2022-09-12T12:03:01.068Z,101419.38
2022-09-12T12:08:06.873Z,101404.19
2022-09-12T12:13:19.269Z,101408.78
2022-09-12T12:18:26.616Z,101407.06
2022-09-12T12:23:32.856Z,101390.75
2022-09-12T12:28:59.207Z,101396.03
2022-09-12T12:34:20.386Z,101394.28
2022-09-12T12:40:01.015Z,101383.44
2022-09-12T12:45:05.128Z,101381.59
2022-09-12T12:50:24.157Z,101371.81
2022-09-12T12:55:34.151Z,101375.38
2022-09-12T13:00:39.999Z,101372.72
2022-09-12T13:05:47.240Z,101370.81
2022-09-12T13:10:51.496Z,101362.81
2022-09-12T13:15:54.688Z,101361.06
2022-09-12T13:21:10.373Z,101354.69
2022-09-12T13:26:15.110Z,101341.97
2022-09-12T13:31:23.302Z,101343.69
2022-09-12T13:36:47.696Z,101342.88
2022-09-12T13:42:20.782Z,101335.75
2022-09-12T13:47:28.906Z,101330.31
2022-09-12T13:52:35.243Z,101324.81
2022-09-12T13:57:41.307Z,101324.91
2022-09-12T14:02:44.076Z,101324.88
2022-09-12T14:07:56.303Z,101320.63
2022-09-12T14:13:01.058Z,101317.91
2022-09-12T14:18:05.906Z,101306.19
2022-09-12T14:23:29.790Z,101294.63
2022-09-12T14:28:33.703Z,101292.81
2022-09-12T14:33:48.499Z,101288.28
2022-09-12T14:38:55.468Z,101281.78
2022-09-12T14:44:01.195Z,101284.38
2022-09-12T14:49:10.690Z,101275.47
2022-09-12T14:54:45.199Z,101263.84
2022-09-12T14:59:47.993Z,101271.06
2022-09-12T15:04:52.523Z,101267.41
2022-09-12T15:09:56.663Z,101266.34
2022-09-12T15:15:01.922Z,101267.97
2022-09-12T15:20:05.422Z,101256.31
2022-09-12T15:25:11.834Z,101253.66
2022-09-12T15:30:15.604Z,101245.59
2022-09-12T15:35:22.337Z,101239.31
2022-09-12T15:40:26.875Z,101246.41
2022-09-12T15:45:32.099Z,101241.00
2022-09-12T15:50:34.816Z,101242.78
2022-09-12T15:55:38.896Z,101238.25
2022-09-12T16:00:41.628Z,101239.19
2022-09-12T16:05:44.536Z,101223.97
2022-09-12T16:10:53.016Z,101229.25
2022-09-12T16:15:57.800Z,101228.22
2022-09-12T16:21:00.552Z,101228.09
2022-09-12T16:26:07.693Z,101232.38
2022-09-12T16:31:14.237Z,101212.66
2022-09-12T16:36:19.510Z,101220.56
2022-09-12T16:41:26.306Z,101217.75
2022-09-12T16:46:29.626Z,101209.47
2022-09-12T16:51:35.808Z,101209.22
2022-09-12T16:56:40.062Z,101205.44
2022-09-12T17:01:45.049Z,101190.94
2022-09-12T17:06:47.839Z,101188.03
2022-09-12T17:11:53.159Z,101169.91
2022-09-12T17:16:55.937Z,101168.66
2022-09-12T17:21:59.472Z,101176.28
2022-09-12T17:27:03.539Z,101172.44
2022-09-12T17:32:06.437Z,101169.53
2022-09-12T17:37:09.574Z,101165.66
2022-09-12T17:42:13.642Z,101161.72
2022-09-12T17:47:16.341Z,101160.59
2022-09-12T17:52:19.040Z,101171.75
2022-09-12T17:57:23.127Z,101166.97
2022-09-12T18:02:26.234Z,101165.72
2022-09-12T18:07:30.717Z,101165.34
2022-09-12T18:12:36.569Z,101156.97
2022-09-12T18:17:39.868Z,101156.38
2022-09-12T18:22:42.586Z,101154.13
2022-09-12T18:27:46.664Z,101154.81
2022-09-12T18:32:49.415Z,101151.88
2022-09-12T18:37:52.109Z,101141.94
2022-09-12T18:42:56.241Z,101140.81
2022-09-12T18:47:58.948Z,101138.94
2022-09-12T18:53:01.657Z,101121.16
2022-09-12T18:58:05.883Z,101113.91
2022-09-12T19:03:08.630Z,101112.00
2022-09-12T19:08:11.463Z,101102.22
2022-09-12T19:13:15.563Z,101094.91
2022-09-12T19:18:18.516Z,101093.78
2022-09-12T19:23:21.253Z,101092.66
2022-09-12T19:28:25.468Z,101086.38
2022-09-12T19:33:28.163Z,101071.22
2022-09-12T19:38:31.201Z,101071.19
2022-09-12T19:43:35.877Z,101057.94
2022-09-12T19:48:38.838Z,101051.56
2022-09-12T19:53:42.268Z,101060.19
2022-09-12T19:58:52.101Z,101054.75
2022-09-12T20:03:58.377Z,101035.28
2022-09-12T20:09:01.100Z,101038.75
2022-09-12T20:14:05.273Z,101036.97
2022-09-12T20:19:08.580Z,101037.81
2022-09-12T20:24:13.715Z,101034.09
2022-09-12T20:29:18.322Z,101032.13
2022-09-12T20:34:22.251Z,101028.41
2022-09-12T20:39:25.169Z,101030.97
2022-09-12T20:44:30.254Z,101022.88
2022-09-12T20:49:32.952Z,101016.59
2022-09-12T20:54:35.647Z,101006.69
2022-09-12T20:59:42.446Z,100994.16
2022-09-12T21:04:45.139Z,100991.41
2022-09-12T21:09:47.821Z,100985.03
2022-09-12T21:14:51.968Z,100978.84
2022-09-12T21:19:54.666Z,100992.88
2022-09-12T21:24:57.384Z,100981.41
2022-09-12T21:30:03.356Z,100973.38
2022-09-12T21:35:06.807Z,100976.84
2022-09-12T21:40:10.045Z,100953.75
2022-09-12T21:45:14.613Z,100949.16
2022-09-12T21:50:17.562Z,100940.28
2022-09-12T21:55:26.110Z,100945.53
2022-09-12T22:00:30.174Z,100933.97
2022-09-12T22:05:33.567Z,100931.31
2022-09-12T22:10:36.641Z,100929.53
2022-09-12T22:15:41.424Z,100920.66
2022-09-12T22:20:44.249Z,100921.56
2022-09-12T22:25:47.008Z,100911.72
2022-09-12T22:30:51.059Z,100901.88
2022-09-12T22:35:53.778Z,100895.66
2022-09-12T22:40:56.828Z,100884.16
2022-09-12T22:46:01.155Z,100878.78
2022-09-12T22:51:03.882Z,100860.06
2022-09-12T22:56:07.026Z,100856.47
2022-09-12T23:01:11.708Z,100851.13
2022-09-12T23:06:14.405Z,100854.59
2022-09-12T23:11:19.049Z,100835.00
2022-09-12T23:16:25.041Z,100827.88
2022-09-12T23:21:29.897Z,100822.41
2022-09-12T23:26:32.652Z,100816.06
2022-09-12T23:31:37.017Z,100805.25
2022-09-12T23:36:39.808Z,100777.66
2022-09-12T23:41:42.501Z,100785.56
2022-09-12T23:46:46.625Z,100787.22
2022-09-12T23:51:49.325Z,100787.25
2022-09-12T23:56:52.352Z,100778.28
